Time;durP1;ratioP1;P1;durP2;ratioP2;P2;SDS_P1;SDS_P2;PMS_P1;PMS_P2;Temp;Humidity;BMP_temperature;BMP_pressure;BME280_temperature;BME280_humidity;BME280_pressure;Samples;Min_cycle;Max_cycle;Signal;HPM_P1;HPM_P2
2021/08/14 00:02:21;;;;;;;11.90;8.23;;;;;;;21.40;nan;101075.69;5051092;28;19913;-74
2021/08/14 00:04:46;;;;;;;9.95;7.75;;;;;;;21.38;nan;101085.78;5051499;28;20463;-74
2021/08/14 00:07:12;;;;;;;9.52;7.60;;;;;;;21.31;nan;101087.66;5051210;28;20505;-74
2021/08/14 00:09:37;;;;;;;10.82;7.60;;;;;;;21.20;nan;101086.44;5051615;28;20043;-74
2021/08/14 00:12:04;;;;;;;8.75;7.55;;;;;;;21.09;nan;101092.44;5049156;28;20072;-74
2021/08/14 00:14:29;;;;;;;9.85;7.32;;;;;;;20.99;nan;101089.34;5051385;28;20404;-74
2021/08/14 00:16:55;;;;;;;9.82;7.63;;;;;;;20.91;nan;101085.00;5050653;28;20048;-74
2021/08/14 00:19:20;;;;;;;8.35;6.20;;;;;;;20.88;nan;101087.25;5050390;28;20726;-74
2021/08/14 00:21:45;;;;;;;9.88;8.27;;;;;;;20.78;nan;101085.81;5050054;28;20429;-74
2021/08/14 00:24:11;;;;;;;9.18;7.65;;;;;;;20.70;nan;101082.50;5049950;28;20089;-74
2021/08/14 00:26:36;;;;;;;7.68;6.30;;;;;;;20.67;nan;101081.06;5050743;28;20040;-74
2021/08/14 00:29:02;;;;;;;7.28;5.93;;;;;;;20.66;nan;101083.94;5050865;28;20041;-74
2021/08/14 00:31:27;;;;;;;8.43;6.90;;;;;;;20.59;nan;101083.91;5051877;28;20033;-74
2021/08/14 00:33:53;;;;;;;7.68;5.72;;;;;;;20.58;nan;101084.97;5050965;28;20354;-73
2021/08/14 00:36:18;;;;;;;6.88;5.50;;;;;;;20.56;nan;101081.66;5050775;28;20501;-74
2021/08/14 00:38:43;;;;;;;9.32;6.53;;;;;;;20.51;nan;101073.34;5051582;28;20040;-74
2021/08/14 00:41:09;;;;;;;8.13;6.10;;;;;;;20.47;nan;101078.28;5051238;28;20470;-74
2021/08/14 00:43:34;;;;;;;7.82;6.60;;;;;;;20.46;nan;101084.69;5050974;28;20040;-74
2021/08/14 00:46:00;;;;;;;7.25;6.20;;;;;;;20.44;nan;101083.25;5050695;28;20033;-74
2021/08/14 00:48:25;;;;;;;6.72;5.57;;;;;;;20.44;nan;101085.94;5049480;28;20033;-74
2021/08/14 00:50:52;;;;;;;6.63;5.90;;;;;;;20.43;nan;101076.22;5050575;28;20112;-74
2021/08/14 00:53:18;;;;;;;10.32;7.15;;;;;;;20.39;nan;101089.22;5050404;28;20159;-74
2021/08/14 00:55:44;;;;;;;8.80;6.97;;;;;;;20.34;nan;101089.00;5050528;28;20041;-74
2021/08/14 00:58:10;;;;;;;8.70;7.60;;;;;;;20.33;nan;101087.34;5049633;28;20513;-74
2021/08/14 01:00:37;;;;;;;10.60;8.88;;;;;;;20.39;nan;101083.03;5050647;28;20060;-74
2021/08/14 01:03:03;;;;;;;9.88;7.80;;;;;;;20.36;nan;101078.91;5050606;28;20029;-74
2021/08/14 01:05:28;;;;;;;11.32;8.02;;;;;;;20.36;nan;101070.84;5050187;28;20033;-74
2021/08/14 01:07:54;;;;;;;11.40;8.85;;;;;;;20.45;nan;101066.94;5049752;28;20098;-74
2021/08/14 01:10:21;;;;;;;13.00;9.73;;;;;;;20.49;nan;101070.03;5049765;28;20044;-74
2021/08/14 01:12:48;;;;;;;9.85;8.38;;;;;;;20.38;nan;101060.72;5050317;28;20029;-74
2021/08/14 01:15:13;;;;;;;13.55;9.25;;;;;;;20.33;nan;101060.47;5050461;28;20405;-74
2021/08/14 01:17:39;;;;;;;12.85;9.27;;;;;;;20.38;nan;101058.03;5048686;28;20035;-74
2021/08/14 01:20:05;;;;;;;13.43;8.95;;;;;;;20.32;nan;101061.53;5050495;28;20391;-74
2021/08/14 01:22:31;;;;;;;12.82;9.75;;;;;;;20.33;nan;101055.09;5050080;28;20029;-74
2021/08/14 01:24:56;;;;;;;10.35;8.57;;;;;;;20.22;nan;101063.78;5050069;28;20387;-74
2021/08/14 01:27:22;;;;;;;11.95;8.38;;;;;;;20.17;nan;101060.88;5047976;28;20446;-74
2021/08/14 01:29:47;;;;;;;11.15;7.80;;;;;;;20.18;nan;101059.81;5050056;28;20033;-74
2021/08/14 01:32:12;;;;;;;11.27;9.10;;;;;;;20.23;nan;101062.72;5049646;28;20563;-74
2021/08/14 01:34:41;;;;;;;10.00;8.63;;;;;;;20.15;nan;101053.84;5048788;28;20622;-74
2021/08/14 01:37:08;;;;;;;11.45;8.57;;;;;;;20.09;nan;101054.66;5048121;28;20061;-74
2021/08/14 01:39:33;;;;;;;10.73;7.95;;;;;;;20.04;nan;101050.91;5033487;28;20508;-74
2021/08/14 01:42:02;;;;;;;8.70;7.80;;;;;;;19.97;nan;101048.19;5050003;28;20136;-74
2021/08/14 01:44:30;;;;;;;9.88;7.72;;;;;;;19.94;nan;101046.72;5049252;28;20090;-74
2021/08/14 01:46:56;;;;;;;9.52;7.10;;;;;;;19.98;nan;101052.53;5049475;28;20307;-74
2021/08/14 01:49:21;;;;;;;9.60;7.28;;;;;;;19.99;nan;101042.63;5049157;28;20067;-74
2021/08/14 01:51:47;;;;;;;8.55;6.90;;;;;;;19.93;nan;101055.00;5049691;28;20040;-74
2021/08/14 01:54:13;;;;;;;10.20;7.95;;;;;;;19.85;nan;101057.84;5049104;28;20508;-74
2021/08/14 01:56:39;;;;;;;8.70;7.13;;;;;;;19.79;nan;101048.75;5050324;28;20110;-74
2021/08/14 01:59:05;;;;;;;8.10;6.88;;;;;;;19.75;nan;101047.47;5049118;28;20040;-74
2021/08/14 02:01:30;;;;;;;7.70;6.88;;;;;;;19.71;nan;101044.38;5050064;28;20044;-74
2021/08/14 02:03:56;;;;;;;8.95;7.00;;;;;;;19.70;nan;101041.88;5049807;28;20444;-74
2021/08/14 02:06:24;;;;;;;8.75;7.22;;;;;;;19.73;nan;101039.66;5047909;28;20043;-74
2021/08/14 02:08:49;;;;;;;9.30;7.15;;;;;;;19.67;nan;101045.78;5050132;28;20086;-74
2021/08/14 02:11:17;;;;;;;8.68;6.90;;;;;;;19.60;nan;101044.91;5049264;28;20104;-74
2021/08/14 02:13:44;;;;;;;8.45;7.13;;;;;;;19.58;nan;101038.91;5050369;28;20028;-74
2021/08/14 02:16:11;;;;;;;8.02;6.88;;;;;;;19.54;nan;101034.97;5050695;28;20044;-74
2021/08/14 02:18:37;;;;;;;6.85;5.90;;;;;;;19.53;nan;101038.69;5049314;28;20367;-74
2021/08/14 02:21:03;;;;;;;8.60;6.68;;;;;;;19.48;nan;101035.78;5050283;28;20096;-74
2021/08/14 02:23:29;;;;;;;8.52;6.95;;;;;;;19.45;nan;101036.16;5050949;28;20037;-74
2021/08/14 02:25:55;;;;;;;8.95;7.47;;;;;;;19.40;nan;101036.75;5048504;28;20516;-74
2021/08/14 02:28:20;;;;;;;8.52;7.35;;;;;;;19.33;nan;101029.69;5047028;28;20106;-74
2021/08/14 02:30:45;;;;;;;9.35;6.80;;;;;;;19.26;nan;101032.34;5047441;28;20063;-74
2021/08/14 02:33:11;;;;;;;9.85;7.07;;;;;;;19.21;nan;101035.63;5044550;28;20043;-74
2021/08/14 02:35:36;;;;;;;7.97;6.65;;;;;;;19.16;nan;101035.34;5045496;28;20488;-74
2021/08/14 02:38:02;;;;;;;8.48;6.88;;;;;;;19.14;nan;101033.88;5046193;28;20040;-74
2021/08/14 02:40:27;;;;;;;9.13;7.53;;;;;;;19.06;nan;101034.88;5043410;28;20047;-74
2021/08/14 02:42:52;;;;;;;9.70;7.90;;;;;;;18.97;nan;101030.69;5047650;28;20406;-74
2021/08/14 02:45:19;;;;;;;9.98;7.80;;;;;;;18.94;nan;101033.75;5047186;28;20037;-74
2021/08/14 02:47:44;;;;;;;9.23;7.38;;;;;;;18.88;nan;101033.50;5048142;28;20036;-74
2021/08/14 02:50:10;;;;;;;8.75;7.13;;;;;;;18.85;nan;101038.41;5048145;28;20029;-74
2021/08/14 02:52:35;;;;;;;8.95;7.18;;;;;;;18.82;nan;101041.50;5049015;28;20399;-74
2021/08/14 02:55:01;;;;;;;7.93;7.13;;;;;;;18.79;nan;101040.03;5047747;28;20512;-74
2021/08/14 02:57:26;;;;;;;8.95;7.15;;;;;;;18.77;nan;101049.28;5047139;28;20061;-74
2021/08/14 02:59:51;;;;;;;8.95;7.50;;;;;;;18.74;nan;101044.28;5048358;28;20029;-74
2021/08/14 03:02:17;;;;;;;8.02;6.93;;;;;;;18.75;nan;101040.56;5051378;28;20033;-74
2021/08/14 03:04:43;;;;;;;7.90;6.68;;;;;;;18.74;nan;101045.13;5052170;28;20036;-74
2021/08/14 03:07:09;;;;;;;7.20;6.05;;;;;;;18.76;nan;101043.09;5052506;28;20068;-74
2021/08/14 03:09:34;;;;;;;6.32;5.30;;;;;;;18.82;nan;101049.53;5052653;28;20041;-74
2021/08/14 03:12:00;;;;;;;7.80;6.70;;;;;;;18.89;nan;101039.69;5052417;28;20099;-74
2021/08/14 03:14:25;;;;;;;11.02;7.50;;;;;;;18.91;nan;101036.84;5051550;28;20047;-74
2021/08/14 03:16:50;;;;;;;7.68;5.97;;;;;;;18.91;nan;101042.19;5052062;28;20792;-74
2021/08/14 03:19:16;;;;;;;7.32;5.90;;;;;;;18.93;nan;101048.19;5051508;28;20037;-74
2021/08/14 03:21:41;;;;;;;8.88;6.95;;;;;;;18.93;nan;101048.19;5051733;28;20104;-74
2021/08/14 03:24:06;;;;;;;7.15;5.90;;;;;;;18.92;nan;101046.53;5051523;28;20458;-74
2021/08/14 03:26:31;;;;;;;8.90;6.65;;;;;;;18.85;nan;101047.31;5051407;28;20032;-74
2021/08/14 03:28:57;;;;;;;9.52;7.20;;;;;;;18.71;nan;101050.88;5051459;28;20489;-74
2021/08/14 03:31:22;;;;;;;8.68;7.43;;;;;;;18.67;nan;101049.59;5051994;28;20047;-74
2021/08/14 03:33:48;;;;;;;7.63;6.60;;;;;;;18.66;nan;101053.25;5050796;28;20028;-74
2021/08/14 03:36:14;;;;;;;7.85;6.53;;;;;;;18.61;nan;101048.47;5051393;28;20033;-74
2021/08/14 03:38:39;;;;;;;8.35;7.18;;;;;;;18.54;nan;101050.25;5051462;28;20214;-74
2021/08/14 03:41:06;;;;;;;10.73;8.55;;;;;;;18.49;nan;101051.88;5052152;28;20037;-74
2021/08/14 03:43:31;;;;;;;9.20;7.38;;;;;;;18.44;nan;101050.59;5050918;28;20033;-74
2021/08/14 03:45:57;;;;;;;9.27;7.35;;;;;;;18.41;nan;101050.97;5051672;28;20033;-74
2021/08/14 03:48:22;;;;;;;10.18;7.63;;;;;;;18.38;nan;101054.03;5050454;28;20433;-74
2021/08/14 03:50:47;;;;;;;8.68;6.95;;;;;;;18.39;nan;101046.84;5051578;28;20128;-74
2021/08/14 03:53:12;;;;;;;10.23;7.70;;;;;;;18.41;nan;101048.31;5051986;28;20485;-74
2021/08/14 03:55:38;;;;;;;8.43;6.90;;;;;;;18.45;nan;101044.22;5051430;28;20040;-74
2021/08/14 03:58:03;;;;;;;7.97;6.50;;;;;;;18.44;nan;101042.56;5050808;28;20060;-74
2021/08/14 04:00:29;;;;;;;9.70;7.20;;;;;;;18.41;nan;101042.13;5050858;28;20529;-74
2021/08/14 04:02:54;;;;;;;8.73;7.10;;;;;;;18.44;nan;101039.06;5051117;28;20045;-74
2021/08/14 04:05:19;;;;;;;9.20;7.03;;;;;;;18.48;nan;101036.84;5051176;28;20097;-74
2021/08/14 04:07:45;;;;;;;9.00;7.07;;;;;;;18.50;nan;101043.66;5050284;28;21221;-74
2021/08/14 04:10:10;;;;;;;8.55;6.65;;;;;;;18.52;nan;101046.97;5052963;28;20037;-74
2021/08/14 04:12:35;;;;;;;8.63;7.30;;;;;;;18.52;nan;101046.97;5051979;28;20033;-73
2021/08/14 04:15:04;;;;;;;9.18;6.88;;;;;;;18.52;nan;101046.97;5052267;28;20037;-74
2021/08/14 04:17:31;;;;;;;9.63;8.05;;;;;;;18.56;nan;101047.41;5052323;28;20037;-74
2021/08/14 04:19:57;;;;;;;9.88;6.90;;;;;;;18.50;nan;101050.88;5052927;28;20082;-74
2021/08/14 04:22:22;;;;;;;9.10;7.15;;;;;;;18.51;nan;101053.34;5052118;28;20497;-74
2021/08/14 04:24:47;;;;;;;8.15;6.53;;;;;;;18.51;nan;101056.00;5051659;28;20033;-74
2021/08/14 04:27:13;;;;;;;9.15;7.22;;;;;;;18.48;nan;101059.09;5051620;28;20120;-74
2021/08/14 04:29:38;;;;;;;8.30;7.35;;;;;;;18.41;nan;101053.66;5052254;28;20104;-74
2021/08/14 04:32:04;;;;;;;8.77;7.20;;;;;;;18.49;nan;101057.22;5050951;28;20073;-74
2021/08/14 04:34:29;;;;;;;10.18;7.75;;;;;;;18.58;nan;101064.94;5051618;28;20520;-74
2021/08/14 04:36:54;;;;;;;11.00;8.27;;;;;;;18.59;nan;101055.06;5052287;28;20365;-74
2021/08/14 04:39:20;;;;;;;9.15;7.50;;;;;;;18.58;nan;101058.75;5051949;28;20486;-74
2021/08/14 04:41:45;;;;;;;10.15;7.95;;;;;;;18.58;nan;101056.91;5051827;28;20116;-74
2021/08/14 04:44:10;;;;;;;9.52;7.30;;;;;;;18.60;nan;101057.56;5051000;28;20552;-74
2021/08/14 04:46:36;;;;;;;10.65;8.05;;;;;;;18.67;nan;101054.94;5050609;28;20429;-74
2021/08/14 04:49:01;;;;;;;8.85;7.45;;;;;;;18.65;nan;101060.47;5050702;28;20041;-74
2021/08/14 04:51:26;;;;;;;9.10;7.10;;;;;;;18.66;nan;101045.22;5051223;28;20044;-74
2021/08/14 04:53:51;;;;;;;8.13;6.72;;;;;;;18.66;nan;101047.91;5051069;28;20087;-74
2021/08/14 04:56:17;;;;;;;8.55;7.00;;;;;;;18.69;nan;101050.22;5049039;28;20082;-74
2021/08/14 04:58:42;;;;;;;9.57;6.72;;;;;;;18.78;nan;101045.56;5050417;28;20033;-74
2021/08/14 05:01:07;;;;;;;10.15;8.00;;;;;;;18.91;nan;101040.34;5050840;28;20037;-74
2021/08/14 05:03:32;;;;;;;9.98;6.97;;;;;;;18.87;nan;101039.88;5049579;28;20327;-74
2021/08/14 05:05:58;;;;;;;8.15;6.78;;;;;;;18.90;nan;101041.34;5050216;28;20037;-73
2021/08/14 05:08:23;;;;;;;8.90;7.05;;;;;;;18.87;nan;101045.25;5050709;28;20120;-74
2021/08/14 05:10:48;;;;;;;8.43;6.78;;;;;;;18.97;nan;101044.91;5051273;28;20512;-73
2021/08/14 05:13:14;;;;;;;8.57;6.60;;;;;;;18.95;nan;101040.75;5051997;28;20036;-74
2021/08/14 05:15:39;;;;;;;8.77;6.60;;;;;;;19.00;nan;101043.72;5050971;28;20048;-74
2021/08/14 05:18:05;;;;;;;6.85;5.85;;;;;;;19.09;nan;101045.19;5050195;28;20044;-74
2021/08/14 05:20:30;;;;;;;7.82;6.00;;;;;;;19.16;nan;101034.53;5049974;28;20571;-74
2021/08/14 05:22:56;;;;;;;8.60;6.90;;;;;;;19.23;nan;101038.91;5051119;28;20456;-74
2021/08/14 05:25:21;;;;;;;7.03;5.38;;;;;;;19.41;nan;101049.13;5048353;28;20336;-74
2021/08/14 05:27:46;;;;;;;7.70;6.45;;;;;;;19.58;nan;101046.13;5050469;28;20037;-74
2021/08/14 05:30:12;;;;;;;7.22;5.97;;;;;;;19.76;nan;101051.00;5050238;28;20123;-74
2021/08/14 05:32:37;;;;;;;6.72;5.45;;;;;;;19.95;nan;101047.59;5050881;28;20095;-74
2021/08/14 05:35:03;;;;;;;7.88;5.60;;;;;;;20.16;nan;101051.97;5051575;28;20040;-74
2021/08/14 05:37:29;;;;;;;6.43;5.32;;;;;;;20.35;nan;101047.69;5049663;28;20371;-74
2021/08/14 05:39:54;;;;;;;7.72;5.90;;;;;;;20.72;nan;101042.81;5050975;28;20116;-74
2021/08/14 05:42:19;;;;;;;7.78;5.32;;;;;;;20.98;nan;101048.19;5050369;28;20120;-74
2021/08/14 05:44:45;;;;;;;6.57;5.43;;;;;;;21.32;nan;101043.59;5051030;28;20112;-75
2021/08/14 05:47:10;;;;;;;6.57;4.80;;;;;;;21.67;nan;101045.19;5050551;28;20044;-75
2021/08/14 05:49:35;;;;;;;6.35;4.97;;;;;;;22.04;nan;101040.88;5049515;28;20036;-74
2021/08/14 05:52:04;;;;;;;5.47;4.53;;;;;;;22.34;nan;101051.94;5050244;28;20040;-74
2021/08/14 05:54:29;;;;;;;5.50;4.38;;;;;;;22.71;nan;101048.56;5029097;28;20061;-74
2021/08/14 05:56:55;;;;;;;8.05;5.35;;;;;;;23.21;nan;101045.88;5029597;28;20037;-74
2021/08/14 05:59:20;;;;;;;8.38;5.80;;;;;;;23.54;nan;100921.34;5029537;28;20037;-75
2021/08/14 06:01:45;;;;;;;10.45;7.22;;;;;;;23.91;nan;100934.78;5026335;28;20040;-74
2021/08/14 06:04:10;;;;;;;10.70;7.13;;;;;;;;;;5049454;28;20025;-75
2021/08/14 06:06:41;;;;;;;9.77;6.67;;;;;;;24.36;nan;100935.13;5049528;28;20409;-74
2021/08/14 06:09:06;;;;;;;;;;;;;;;24.41;nan;100942.53;5044744;28;20036;-75
2021/08/14 06:11:31;;;;;;;;;;;;;;;24.75;nan;100950.91;5050489;28;19968;-73
2021/08/14 06:13:56;;;;;;;6.93;5.68;;;;;;;25.10;nan;100950.03;5049878;28;20384;-74
2021/08/14 06:16:21;;;;;;;8.15;6.13;;;;;;;;;;5047414;28;20666;-74
2021/08/14 06:18:47;;;;;;;9.60;7.27;;;;;;;25.77;nan;100939.53;5041179;28;20045;-74
2021/08/14 06:21:12;;;;;;;10.05;6.80;;;;;;;26.10;nan;100958.81;5049373;28;20049;-74
2021/08/14 06:23:37;;;;;;;8.50;6.25;;;;;;;26.28;nan;100953.16;5049691;28;20021;-73
2021/08/14 06:26:03;;;;;;;9.20;7.72;;;;;;;26.47;nan;100954.56;5049504;28;20036;-74
2021/08/14 06:28:28;;;;;;;18.63;7.88;;;;;;;26.37;nan;100942.75;5047647;28;20041;-73
2021/08/14 06:30:54;;;;;;;8.02;6.53;;;;;;;26.60;nan;100911.91;5048262;28;20036;-74
2021/08/14 06:33:19;;;;;;;10.48;7.28;;;;;;;26.87;nan;100947.31;5049662;28;20079;-74
2021/08/14 06:35:44;;;;;;;7.18;6.10;;;;;;;26.87;nan;100942.72;5052972;28;20520;-74
2021/08/14 06:38:09;;;;;;;9.20;7.13;;;;;;;27.21;nan;100966.25;5053169;28;20071;-74
2021/08/14 06:40:35;;;;;;;12.38;5.85;;;;;;;27.06;nan;100966.84;5053923;28;20021;-73
2021/08/14 06:43:00;;;;;;;7.82;5.75;;;;;;;27.20;nan;100951.88;5052469;28;20033;-74
2021/08/14 06:45:25;;;;;;;8.45;6.55;;;;;;;;;;5053282;28;20383;-74
2021/08/14 06:47:51;;;;;;;8.60;6.13;;;;;;;27.62;nan;100953.97;5052667;28;20037;-74
2021/08/14 06:50:18;;;;;;;11.93;6.78;;;;;;;27.97;nan;100944.56;5052981;28;20560;-74
2021/08/14 06:52:43;;;;;;;9.07;6.40;;;;;;;28.17;nan;100954.81;5052927;28;20033;-75
2021/08/14 06:55:09;;;;;;;6.88;5.55;;;;;;;28.52;nan;100962.47;5052799;28;20055;-74
2021/08/14 06:57:34;;;;;;;6.88;5.53;;;;;;;28.47;nan;100945.28;5051966;28;20465;-75
2021/08/14 07:00:00;;;;;;;5.43;4.90;;;;;;;28.52;nan;101052.25;5051743;28;20345;-75
2021/08/14 07:02:25;;;;;;;6.07;5.10;;;;;;;28.98;nan;101063.50;5050067;28;20064;-75
2021/08/14 07:04:50;;;;;;;6.80;5.57;;;;;;;29.07;nan;101060.31;5050997;28;20044;-74
2021/08/14 07:07:17;;;;;;;7.80;5.88;;;;;;;29.28;nan;101067.53;5052962;28;20117;-74
2021/08/14 07:09:43;;;;;;;6.20;5.13;;;;;;;29.71;nan;101071.03;5051081;28;20088;-75
2021/08/14 07:12:08;;;;;;;9.35;5.65;;;;;;;29.28;nan;101075.69;5052213;28;20116;-76
2021/08/14 07:14:33;;;;;;;6.85;5.28;;;;;;;29.37;nan;101067.84;5052211;28;20044;-75
2021/08/14 07:16:59;;;;;;;10.20;7.03;;;;;;;29.85;nan;101074.91;5052661;28;20139;-74
2021/08/14 07:19:24;;;;;;;7.97;5.47;;;;;;;29.72;nan;101072.66;5051053;28;20104;-75
2021/08/14 07:21:49;;;;;;;6.33;5.10;;;;;;;30.13;nan;101070.09;5049533;28;20043;-75
2021/08/14 07:24:14;;;;;;;7.72;5.90;;;;;;;30.66;nan;101067.16;5051605;28;20033;-75
2021/08/14 07:26:40;;;;;;;10.90;6.93;;;;;;;30.83;nan;101066.88;5050628;28;20112;-75
2021/08/14 07:29:05;;;;;;;7.78;6.55;;;;;;;30.78;nan;101070.44;5051279;28;20029;-74
2021/08/14 07:31:30;;;;;;;9.90;6.35;;;;;;;30.57;nan;101066.88;5052747;28;20143;-75
2021/08/14 07:33:56;;;;;;;7.93;6.13;;;;;;;30.40;nan;101066.34;5052253;28;20060;-75
2021/08/14 07:36:21;;;;;;;8.27;6.10;;;;;;;30.68;nan;101068.53;5051748;28;20599;-75
2021/08/14 07:38:46;;;;;;;7.43;5.90;;;;;;;30.95;nan;101067.44;5052308;28;20314;-76
2021/08/14 07:41:12;;;;;;;5.85;5.15;;;;;;;31.21;nan;101068.22;5052520;28;20045;-76
2021/08/14 07:43:37;;;;;;;7.22;5.85;;;;;;;31.55;nan;101069.50;5052472;28;20074;-76
2021/08/14 07:46:02;;;;;;;6.32;5.15;;;;;;;31.78;nan;101068.03;5051723;28;20064;-76
2021/08/14 07:48:29;;;;;;;7.43;5.50;;;;;;;31.14;nan;101064.94;5050575;28;20490;-75
2021/08/14 07:50:54;;;;;;;6.63;5.30;;;;;;;31.85;nan;101065.81;5052423;28;20116;-76
2021/08/14 07:53:20;;;;;;;7.65;6.15;;;;;;;31.88;nan;101067.97;5052010;28;20035;-75
2021/08/14 07:55:46;;;;;;;6.85;5.32;;;;;;;31.31;nan;101065.44;5051816;28;20087;-75
2021/08/14 07:58:13;;;;;;;6.68;5.18;;;;;;;32.12;nan;101063.50;5049698;28;20490;-75
2021/08/14 08:00:39;;;;;;;7.32;4.85;;;;;;;32.46;nan;101068.16;5052293;28;20033;-76
2021/08/14 08:03:09;;;;;;;6.30;4.82;;;;;;;32.85;nan;101074.75;5051797;28;20045;-76
2021/08/14 08:05:35;;;;;;;6.82;5.32;;;;;;;33.24;nan;101082.84;5052008;28;20413;-75
2021/08/14 08:08:04;;;;;;;6.07;4.97;;;;;;;33.52;nan;101072.94;5052208;28;20116;-76
2021/08/14 08:10:30;;;;;;;7.80;6.15;;;;;;;33.70;nan;101067.81;5051967;28;20116;-76
2021/08/14 08:12:56;;;;;;;8.30;6.10;;;;;;;33.89;nan;101070.56;5051562;28;20036;-76
2021/08/14 08:15:22;;;;;;;6.53;5.20;;;;;;;33.92;nan;101069.97;5051692;28;20393;-76
2021/08/14 08:17:48;;;;;;;6.35;5.35;;;;;;;33.86;nan;101068.44;5051561;28;20091;-75
2021/08/14 08:20:15;;;;;;;7.03;5.35;;;;;;;34.44;nan;101063.47;5051663;28;20444;-76
2021/08/14 08:22:41;;;;;;;6.72;5.40;;;;;;;34.54;nan;101064.41;5050583;28;20036;-75
2021/08/14 08:25:07;;;;;;;5.40;4.68;;;;;;;34.86;nan;101055.34;5051887;28;20033;-76
2021/08/14 08:27:35;;;;;;;5.10;4.32;;;;;;;35.55;nan;101055.41;5049714;28;20402;-76
2021/08/14 08:30:00;;;;;;;5.18;4.38;;;;;;;35.86;nan;101055.59;5050503;28;20458;-75
2021/08/14 08:32:25;;;;;;;3.23;2.90;;;;;;;35.87;nan;101050.88;5049891;28;20394;-76
2021/08/14 08:34:51;;;;;;;4.40;3.93;;;;;;;35.33;nan;101055.31;5050034;28;20394;-75
2021/08/14 08:37:16;;;;;;;5.20;4.70;;;;;;;35.79;nan;101054.38;5049959;28;20488;-76
2021/08/14 08:39:41;;;;;;;5.87;5.27;;;;;;;35.98;nan;101054.22;5048864;28;20902;-76
2021/08/14 08:42:08;;;;;;;4.43;3.80;;;;;;;36.10;nan;101038.81;5049407;28;20917;-75
2021/08/14 08:44:34;;;;;;;6.03;5.03;;;;;;;36.40;nan;101041.13;5050055;28;20771;-75
2021/08/14 08:46:59;;;;;;;3.80;3.40;;;;;;;36.18;nan;101040.00;5049884;28;20485;-76
2021/08/14 08:49:26;;;;;;;5.87;4.20;;;;;;;35.77;nan;101040.91;5049756;28;20813;-76
2021/08/14 08:51:51;;;;;;;4.85;3.90;;;;;;;36.20;nan;101039.69;5051150;28;20033;-76
2021/08/14 08:54:17;;;;;;;4.93;3.80;;;;;;;36.58;nan;101031.88;5048752;28;20416;-75
2021/08/14 08:56:43;;;;;;;6.25;3.88;;;;;;;37.09;nan;101038.81;5050531;28;20025;-75
2021/08/14 08:59:11;;;;;;;7.03;4.72;;;;;;;37.72;nan;101038.66;5049405;28;20063;-76
2021/08/14 09:01:42;;;;;;;9.63;5.20;;;;;;;37.86;nan;101036.56;5050864;28;20124;-76
2021/08/14 09:04:26;;;;;;;;;;;;;;;37.65;nan;101030.03;5050320;28;20571;-76
2021/08/14 09:06:52;;;;;;;7.03;5.25;;;;;;;37.28;nan;101043.22;5051339;28;19919;-75
2021/08/14 09:09:25;;;;;;;7.65;5.20;;;;;;;37.37;nan;101044.88;5050339;28;20041;-75
2021/08/14 09:11:53;;;;;;;5.97;4.70;;;;;;;37.49;nan;101041.50;5049743;28;20409;-76
2021/08/14 09:14:19;;;;;;;5.82;4.53;;;;;;;36.96;nan;101037.75;5050195;28;20084;-76
2021/08/14 09:16:45;;;;;;;4.95;4.07;;;;;;;37.80;nan;101033.13;5049230;28;20429;-76
2021/08/14 09:19:22;;;;;;;8.45;4.60;;;;;;;37.94;nan;101032.97;5049118;28;20428;-75
2021/08/14 09:21:48;;;;;;;;;;;;;;;37.38;nan;101029.97;5050703;28;20506;-75
2021/08/14 09:24:33;;;;;;;;;;;;;;;36.73;nan;101027.91;5050583;28;19962;-76
2021/08/14 09:27:00;;;;;;;;;;;;;;;36.05;nan;101011.38;5049640;28;19920;-76
2021/08/14 09:29:32;;;;;;;;;;;;;;;35.16;nan;101010.03;5050476;28;19978;-76
2021/08/14 09:31:58;;;;;;;;;;;;;;;34.24;nan;101012.44;5050727;28;19912;-76
2021/08/14 09:34:24;;;;;;;;;;;;;;;34.12;nan;101008.53;5050036;28;19928;-75
2021/08/14 09:37:03;;;;;;;;;;;;;;;34.01;nan;101008.63;5050883;28;19913;-76
2021/08/14 09:39:29;;;;;;;;;;;;;;;34.27;nan;101013.75;5049951;28;19947;-76
2021/08/14 09:42:09;;;;;;;6.18;4.55;;;;;;;33.89;nan;101011.03;5043016;28;19970;-76
2021/08/14 09:44:35;;;;;;;7.10;4.88;;;;;;;34.17;nan;101008.44;5049412;28;20037;-76
2021/08/14 09:47:05;;;;;;;7.43;4.70;;;;;;;33.81;nan;101006.22;5049955;28;20032;-76
2021/08/14 09:49:50;;;;;;;4.78;3.90;;;;;;;33.18;nan;101007.28;5049655;28;20083;-76
2021/08/14 09:52:24;;;;;;;5.75;3.58;;;;;;;33.03;nan;101010.97;5043743;28;20110;-76
2021/08/14 09:54:50;;;;;;;5.47;3.63;;;;;;;33.30;nan;100999.47;5049591;28;20433;-76
2021/08/14 09:57:16;;;;;;;5.10;4.25;;;;;;;33.52;nan;101001.66;5049863;28;20063;-76
2021/08/14 09:59:44;;;;;;;4.55;3.67;;;;;;;33.49;nan;101002.25;5045800;28;20044;-77
2021/08/14 10:02:20;;;;;;;5.65;3.67;;;;;;;33.68;nan;100993.22;5046714;28;20158;-75
2021/08/14 10:04:47;;;;;;;5.78;4.15;;;;;;;33.36;nan;100994.72;5050009;28;20547;-76
2021/08/14 10:07:16;;;;;;;5.28;3.78;;;;;;;33.30;nan;100987.66;5050061;28;20071;-76
2021/08/14 10:09:42;;;;;;;4.93;3.72;;;;;;;33.13;nan;100986.25;5044790;28;20076;-77
2021/08/14 10:12:10;;;;;;;4.60;3.53;;;;;;;33.02;nan;100992.09;5047670;28;20037;-76
2021/08/14 10:14:41;;;;;;;5.75;4.00;;;;;;;32.93;nan;100991.91;5049323;28;20029;-76
2021/08/14 10:17:07;;;;;;;6.65;4.60;;;;;;;33.12;nan;100990.09;5050212;28;20120;-76
2021/08/14 10:19:33;;;;;;;5.47;4.22;;;;;;;32.40;nan;100983.66;5049513;28;20053;-75
2021/08/14 10:21:59;;;;;;;6.70;4.60;;;;;;;32.38;nan;100982.00;5049854;28;20036;-75
2021/08/14 10:24:25;;;;;;;5.90;4.20;;;;;;;32.20;nan;100969.03;5047968;28;20033;-76
2021/08/14 10:27:03;;;;;;;5.25;4.60;;;;;;;32.20;nan;100970.94;5049990;28;20025;-76
2021/08/14 10:29:49;;;;;;;6.85;4.93;;;;;;;32.11;nan;100962.56;5049680;28;20029;-75
2021/08/14 10:32:30;;;;;;;;;;;;;;;32.13;nan;100961.16;5049317;28;20128;-75
2021/08/14 10:35:14;;;;;;;;;;;;;;;32.01;nan;100954.41;5050086;28;19917;-76
2021/08/14 10:37:40;;;;;;;;;;;;;;;31.99;nan;100951.13;5049962;28;19960;-75
2021/08/14 10:40:06;;;;;;;5.65;4.25;;;;;;;31.99;nan;100948.41;5048732;28;19913;-75
2021/08/14 10:42:48;;;;;;;5.03;3.55;;;;;;;32.06;nan;100947.00;5047915;28;20891;-75
2021/08/14 10:45:15;;;;;;;8.88;4.40;;;;;;;32.32;nan;100953.06;5048401;28;20052;-75
2021/08/14 10:47:44;;;;;;;5.97;4.22;;;;;;;31.98;nan;100944.03;5047579;28;20386;-76
2021/08/14 10:50:30;;;;;;;4.82;4.10;;;;;;;31.80;nan;100946.34;5048933;28;20037;-75
2021/08/14 10:53:10;;;;;;;4.75;3.20;;;;;;;31.85;nan;100935.34;5029562;28;20036;-75
2021/08/14 10:55:38;;;;;;;6.88;4.47;;;;;;;31.88;nan;100937.50;5036932;28;20082;-74
2021/08/14 10:58:37;;;;;;;6.13;4.47;;;;;;;31.71;nan;100926.97;5048618;28;20040;-75
2021/08/14 11:01:02;;;;;;;9.02;5.25;;;;;;;31.42;nan;100929.63;5048310;28;20041;-75
2021/08/14 11:03:33;;;;;;;6.10;4.20;;;;;;;31.44;nan;100924.69;5049401;28;20452;-75
2021/08/14 11:06:32;;;;;;;8.23;5.80;;;;;;;31.35;nan;100917.34;5029256;28;20607;-75
2021/08/14 11:09:16;;;;;;;6.10;4.80;;;;;;;31.11;nan;100913.34;5040807;28;20059;-76
2021/08/14 11:11:42;;;;;;;6.45;4.60;;;;;;;30.94;nan;100907.41;5049512;28;20043;-76
2021/08/14 11:14:12;;;;;;;6.50;5.00;;;;;;;30.97;nan;100912.31;5047065;28;20032;-78
2021/08/14 11:16:58;;;;;;;5.00;4.22;;;;;;;31.18;nan;100912.19;5031887;28;20029;-74
2021/08/14 11:19:45;;;;;;;5.68;4.18;;;;;;;31.17;nan;100911.41;5048088;28;20515;-75
2021/08/14 11:22:21;;;;;;;9.63;5.78;;;;;;;31.47;nan;100901.44;5049715;28;20525;-75
2021/08/14 11:24:47;;;;;;;6.07;4.55;;;;;;;31.39;nan;100905.53;5056050;28;20041;-75
2021/08/14 11:27:16;;;;;;;5.32;4.53;;;;;;;31.44;nan;100899.25;5061646;28;20059;-75
2021/08/14 11:29:43;;;;;;;6.40;4.78;;;;;;;31.45;nan;100890.78;5051289;28;20025;-75
2021/08/14 11:32:08;;;;;;;5.43;4.53;;;;;;;31.35;nan;100898.22;5052253;28;20029;-76
2021/08/14 11:34:35;;;;;;;5.65;4.50;;;;;;;31.44;nan;100894.63;5052282;28;20037;-75
2021/08/14 11:37:00;;;;;;;6.68;5.25;;;;;;;31.43;nan;100883.97;5052665;28;20044;-75
2021/08/14 11:39:31;;;;;;;5.55;4.43;;;;;;;31.22;nan;100880.50;5052306;28;20037;-75
2021/08/14 11:41:56;;;;;;;6.22;4.45;;;;;;;31.18;nan;100873.97;5044972;28;20032;-75
2021/08/14 11:44:25;;;;;;;6.82;5.13;;;;;;;31.18;nan;100874.81;5050631;28;20041;-75
2021/08/14 11:47:02;;;;;;;6.05;4.50;;;;;;;31.02;nan;100862.31;5050970;28;20491;-75